createdAt,value
2023-06-07T00:02:05.913Z,16.17
2023-06-07T00:04:32.939Z,21.48
2023-06-07T00:07:02.449Z,13.13
2023-06-07T00:09:31.434Z,19.05
2023-06-07T00:11:58.910Z,19.60
2023-06-07T00:14:26.124Z,17.02
2023-06-07T00:16:54.658Z,18.65
2023-06-07T00:19:26.460Z,20.75
2023-06-07T00:21:53.480Z,16.15
2023-06-07T00:24:21.235Z,14.27
2023-06-07T00:26:48.542Z,16.38
2023-06-07T00:29:16.245Z,16.65
2023-06-07T00:31:43.260Z,16.52
2023-06-07T00:34:10.051Z,18.52
2023-06-07T00:36:36.941Z,16.48
2023-06-07T00:39:03.982Z,19.45
2023-06-07T00:41:30.868Z,16.90
2023-06-07T00:43:57.784Z,16.63
2023-06-07T00:46:29.465Z,17.25
2023-06-07T00:48:58.173Z,16.13
2023-06-07T00:51:29.109Z,17.13
2023-06-07T00:53:59.497Z,17.40
2023-06-07T00:56:27.605Z,16.25
2023-06-07T00:58:54.733Z,20.92
2023-06-07T01:01:21.683Z,15.98
2023-06-07T01:03:48.871Z,17.83
2023-06-07T01:06:15.837Z,18.83
2023-06-07T01:08:43.367Z,18.48
2023-06-07T01:11:12.061Z,13.27
2023-06-07T01:13:40.422Z,18.77
2023-06-07T01:16:09.475Z,15.20
2023-06-07T01:18:37.270Z,19.38
2023-06-07T01:21:05.756Z,18.30
2023-06-07T01:23:34.029Z,17.75
2023-06-07T01:26:02.261Z,18.63
2023-06-07T01:28:32.535Z,16.30
2023-06-07T01:33:30.282Z,15.82
2023-06-07T01:35:58.995Z,17.30
2023-06-07T01:38:27.875Z,17.38
2023-06-07T01:40:56.547Z,21.13
2023-06-07T01:43:24.636Z,16.92
2023-06-07T01:45:53.825Z,18.30
2023-06-07T01:48:20.976Z,18.45
2023-06-07T01:50:47.891Z,19.85
2023-06-07T01:53:14.751Z,17.92
2023-06-07T01:55:41.926Z,17.13
2023-06-07T01:58:19.231Z,14.30
2023-06-07T02:01:14.630Z,20.75
2023-06-07T02:03:54.908Z,19.90
2023-06-07T02:06:29.353Z,18.67
2023-06-07T02:09:01.123Z,22.95
2023-06-07T02:11:29.600Z,22.25
2023-06-07T02:13:57.264Z,17.08
2023-06-07T02:16:37.833Z,18.08
2023-06-07T02:19:08.698Z,18.90
2023-06-07T02:21:36.584Z,21.05
2023-06-07T02:24:04.457Z,17.25
2023-06-07T02:26:31.518Z,19.33
2023-06-07T02:28:58.312Z,19.50
2023-06-07T02:31:25.783Z,18.70
2023-06-07T02:33:53.084Z,22.23
2023-06-07T02:36:23.483Z,14.85
2023-06-07T02:38:50.316Z,20.40
2023-06-07T02:41:17.259Z,14.93
2023-06-07T02:43:45.141Z,20.90
2023-06-07T02:46:14.650Z,17.85
2023-06-07T02:48:41.442Z,17.55
2023-06-07T02:51:08.535Z,22.60
2023-06-07T02:53:35.724Z,19.58
2023-06-07T02:56:02.591Z,21.60
2023-06-07T02:58:30.090Z,20.25
2023-06-07T03:00:57.322Z,19.90
2023-06-07T03:03:25.073Z,26.50
2023-06-07T03:05:53.418Z,19.02
2023-06-07T03:08:20.396Z,22.67
2023-06-07T03:10:47.233Z,19.98
2023-06-07T03:13:14.029Z,24.25
2023-06-07T03:15:40.806Z,25.17
2023-06-07T03:18:08.370Z,18.33
2023-06-07T03:20:35.873Z,20.25
2023-06-07T03:23:04.020Z,18.02
2023-06-07T03:25:31.486Z,18.67
2023-06-07T03:27:58.390Z,24.95
2023-06-07T03:30:25.309Z,21.88
2023-06-07T03:32:52.362Z,25.83
2023-06-07T03:35:19.934Z,20.65
2023-06-07T03:37:47.244Z,24.02
2023-06-07T03:40:14.244Z,25.95
2023-06-07T03:42:41.060Z,24.05
2023-06-07T03:45:08.333Z,23.02
2023-06-07T03:47:35.217Z,28.30
2023-06-07T03:50:02.486Z,20.58
2023-06-07T03:52:29.591Z,22.00
2023-06-07T03:54:56.360Z,22.90
2023-06-07T03:57:23.268Z,20.85
2023-06-07T03:59:50.035Z,25.42
2023-06-07T04:02:16.913Z,22.83
2023-06-07T04:04:43.747Z,28.52
2023-06-07T04:07:10.554Z,23.02
2023-06-07T04:09:37.366Z,23.33
2023-06-07T04:12:05.066Z,27.38
2023-06-07T04:14:31.807Z,24.30
2023-06-07T04:16:58.643Z,25.65
2023-06-07T04:19:25.521Z,25.95
2023-06-07T04:21:52.324Z,33.25
2023-06-07T04:24:20.428Z,30.80
2023-06-07T04:26:48.640Z,26.40
2023-06-07T04:29:16.141Z,25.60
2023-06-07T04:31:43.855Z,27.75
2023-06-07T04:34:11.140Z,37.95
2023-06-07T04:36:40.213Z,27.45
2023-06-07T04:39:10.359Z,22.42
2023-06-07T04:41:37.764Z,27.52
2023-06-07T04:44:04.752Z,29.38
2023-06-07T04:46:34.798Z,27.45
2023-06-07T04:49:01.743Z,28.77
2023-06-07T04:51:30.955Z,28.25
2023-06-07T04:54:02.875Z,30.58
2023-06-07T04:56:29.934Z,30.92
2023-06-07T04:58:57.626Z,30.00
2023-06-07T05:01:25.720Z,30.02
2023-06-07T05:04:01.411Z,26.85
2023-06-07T05:06:29.823Z,23.98
2023-06-07T05:08:57.080Z,28.63
2023-06-07T05:11:24.183Z,30.80
2023-06-07T05:13:51.048Z,31.23
2023-06-07T05:16:18.235Z,28.48
2023-06-07T05:18:47.698Z,30.40
2023-06-07T05:21:15.217Z,30.70
2023-06-07T05:23:42.612Z,31.85
2023-06-07T05:26:09.660Z,33.45
2023-06-07T05:28:36.800Z,34.58
2023-06-07T05:31:03.976Z,33.45
2023-06-07T05:33:32.177Z,29.85
2023-06-07T05:35:59.466Z,31.70
2023-06-07T05:38:26.400Z,30.95
2023-06-07T05:40:56.735Z,34.90
2023-06-07T05:45:50.588Z,29.50
2023-06-07T05:48:17.515Z,36.35
2023-06-07T05:50:44.368Z,32.97
2023-06-07T05:53:11.663Z,33.17
2023-06-07T05:55:38.578Z,33.30
2023-06-07T05:58:05.464Z,29.20
2023-06-07T06:00:33.069Z,33.22
2023-06-07T06:03:02.889Z,36.65
2023-06-07T06:05:30.279Z,32.63
2023-06-07T06:07:58.471Z,33.80
2023-06-07T06:10:26.484Z,34.30
2023-06-07T06:12:53.705Z,41.42
2023-06-07T06:15:20.660Z,35.42
2023-06-07T06:17:50.363Z,32.92
2023-06-07T06:20:18.058Z,28.17
2023-06-07T06:22:46.878Z,32.97
2023-06-07T06:25:15.177Z,40.65
2023-06-07T06:27:42.506Z,32.65
2023-06-07T06:30:09.768Z,34.47
2023-06-07T06:32:36.982Z,34.97
2023-06-07T06:35:04.692Z,30.17
2023-06-07T06:37:31.675Z,30.50
2023-06-07T06:39:58.662Z,36.25
2023-06-07T06:42:26.005Z,32.00
2023-06-07T06:44:52.907Z,36.83
2023-06-07T06:47:19.767Z,32.78
2023-06-07T06:49:46.901Z,34.85
2023-06-07T06:52:13.767Z,32.30
2023-06-07T06:54:40.750Z,36.97
2023-06-07T06:57:09.363Z,27.02
2023-06-07T06:59:37.066Z,30.80
2023-06-07T07:02:04.525Z,33.50
2023-06-07T07:04:33.050Z,31.52
2023-06-07T07:07:00.083Z,28.70
2023-06-07T07:09:26.987Z,34.75
2023-06-07T07:11:53.994Z,31.48
2023-06-07T07:14:20.824Z,30.00
2023-06-07T07:16:47.923Z,34.05
2023-06-07T07:19:14.857Z,31.92
2023-06-07T07:21:44.441Z,30.20
2023-06-07T07:24:11.568Z,30.83
2023-06-07T07:26:40.475Z,27.38
2023-06-07T07:29:07.534Z,33.10
2023-06-07T07:31:35.028Z,31.90
2023-06-07T07:34:04.917Z,31.48
2023-06-07T07:36:35.398Z,32.03
2023-06-07T07:39:08.913Z,27.08
2023-06-07T07:41:35.884Z,28.35
2023-06-07T07:44:02.770Z,29.35
2023-06-07T07:46:29.787Z,28.65
2023-06-07T07:48:57.075Z,27.75
2023-06-07T07:51:24.136Z,24.02
2023-06-07T07:53:53.617Z,28.02
2023-06-07T07:56:22.620Z,26.38
2023-06-07T07:58:52.102Z,24.63
2023-06-07T08:01:23.666Z,28.00
2023-06-07T08:03:50.987Z,23.25
2023-06-07T08:06:18.491Z,27.38
2023-06-07T08:08:48.540Z,26.95
2023-06-07T08:11:15.557Z,23.85
2023-06-07T08:13:42.482Z,30.23
2023-06-07T08:16:09.516Z,24.58
2023-06-07T08:18:36.510Z,24.45
2023-06-07T08:21:05.106Z,24.70
2023-06-07T08:23:32.171Z,22.00
2023-06-07T08:25:59.720Z,24.70
2023-06-07T08:28:26.986Z,21.88
2023-06-07T08:30:53.842Z,19.35
2023-06-07T08:33:20.679Z,23.00
2023-06-07T08:35:47.505Z,23.98
2023-06-07T08:38:14.564Z,18.83
2023-06-07T08:40:41.598Z,19.42
2023-06-07T08:43:09.196Z,24.67
2023-06-07T08:45:38.325Z,23.90
2023-06-07T08:48:07.785Z,18.02
2023-06-07T08:50:35.446Z,15.98
2023-06-07T08:53:09.820Z,22.58
2023-06-07T08:55:38.220Z,18.83
2023-06-07T08:58:07.715Z,20.98
2023-06-07T09:00:34.958Z,18.30
2023-06-07T09:03:02.193Z,17.60
2023-06-07T09:05:29.991Z,18.30
2023-06-07T09:07:57.497Z,18.90
2023-06-07T09:10:24.353Z,16.90
2023-06-07T09:12:51.291Z,17.48
2023-06-07T09:15:22.666Z,18.55
2023-06-07T09:18:01.603Z,16.88
2023-06-07T09:20:30.359Z,15.65
2023-06-07T09:23:00.937Z,16.77
2023-06-07T09:25:29.271Z,19.55
2023-06-07T09:27:56.882Z,17.38
2023-06-07T09:30:24.651Z,16.33
2023-06-07T09:32:51.836Z,16.77
2023-06-07T09:35:22.300Z,15.15
2023-06-07T09:37:56.054Z,12.90
2023-06-07T09:40:26.306Z,14.38
2023-06-07T09:43:00.743Z,16.60
2023-06-07T09:45:28.551Z,13.82
2023-06-07T09:48:07.610Z,14.07
2023-06-07T09:50:34.841Z,15.05
2023-06-07T09:53:02.958Z,14.20
2023-06-07T09:55:31.400Z,16.65
2023-06-07T09:57:58.728Z,14.35
2023-06-07T10:00:27.226Z,14.15
2023-06-07T10:03:06.773Z,13.25
2023-06-07T10:05:34.345Z,18.00
2023-06-07T10:08:01.322Z,13.73
2023-06-07T10:10:29.408Z,14.82
2023-06-07T10:12:59.707Z,11.23
2023-06-07T10:15:26.973Z,15.20
2023-06-07T10:18:06.510Z,12.90
2023-06-07T10:20:42.172Z,13.68
2023-06-07T10:23:15.253Z,12.57
2023-06-07T10:25:59.357Z,11.60
2023-06-07T10:28:31.347Z,11.68
2023-06-07T10:31:06.645Z,14.52
2023-06-07T10:33:36.936Z,11.98
2023-06-07T10:36:04.912Z,11.95
2023-06-07T10:38:33.554Z,14.68
2023-06-07T10:41:05.685Z,13.63
2023-06-07T10:43:34.354Z,12.00
2023-06-07T10:46:25.391Z,13.10
2023-06-07T10:48:54.219Z,11.15
2023-06-07T10:52:05.959Z,12.15
2023-06-07T10:54:34.695Z,11.50
2023-06-07T10:57:04.198Z,10.75
2023-06-07T10:59:31.316Z,9.82
2023-06-07T11:02:20.199Z,11.40
2023-06-07T11:05:01.377Z,10.18
2023-06-07T11:07:32.381Z,10.80
2023-06-07T11:10:06.361Z,11.25
2023-06-07T11:12:37.484Z,10.10
2023-06-07T11:15:21.661Z,11.13
2023-06-07T11:17:52.689Z,9.73
2023-06-07T11:20:41.623Z,9.60
2023-06-07T11:23:28.638Z,9.90
2023-06-07T11:25:57.482Z,9.40
2023-06-07T11:28:34.683Z,9.32
2023-06-07T11:31:02.829Z,7.65
2023-06-07T11:33:30.434Z,8.70
2023-06-07T11:35:57.915Z,10.48
2023-06-07T11:38:27.380Z,8.75
2023-06-07T11:40:54.894Z,11.38
2023-06-07T11:43:24.919Z,10.10
2023-06-07T11:45:55.691Z,13.25
2023-06-07T11:48:26.355Z,9.02
2023-06-07T11:50:53.403Z,8.18
2023-06-07T11:53:21.575Z,12.70
2023-06-07T11:55:48.850Z,9.98
2023-06-07T11:58:16.040Z,9.75
2023-06-07T12:00:45.267Z,9.50
2023-06-07T12:03:14.288Z,7.72
2023-06-07T12:05:41.539Z,8.93
2023-06-07T12:08:14.198Z,8.75
2023-06-07T12:10:41.084Z,7.90
2023-06-07T12:13:17.608Z,11.85
2023-06-07T12:15:46.889Z,8.07
2023-06-07T12:18:20.069Z,10.35
2023-06-07T12:20:48.873Z,7.55
2023-06-07T12:23:21.488Z,11.95
2023-06-07T12:25:49.209Z,11.30
2023-06-07T12:28:16.725Z,7.75
2023-06-07T12:30:49.310Z,8.88
2023-06-07T12:33:16.682Z,8.60
2023-06-07T12:35:48.966Z,9.05
2023-06-07T12:38:16.501Z,8.85
2023-06-07T12:40:43.402Z,8.38
2023-06-07T12:43:10.403Z,8.57
2023-06-07T12:45:37.714Z,9.80
2023-06-07T12:48:05.167Z,10.45
2023-06-07T12:50:32.224Z,8.30
2023-06-07T12:52:59.609Z,7.15
2023-06-07T12:55:27.314Z,8.38
2023-06-07T12:57:54.578Z,7.97
2023-06-07T13:00:21.732Z,7.53
2023-06-07T13:02:49.380Z,8.32
2023-06-07T13:05:16.450Z,7.57
2023-06-07T13:07:43.458Z,6.20
2023-06-07T13:10:11.966Z,9.63
2023-06-07T13:12:40.133Z,9.88
2023-06-07T13:15:07.770Z,8.32
2023-06-07T13:17:35.440Z,8.98
2023-06-07T13:20:03.149Z,7.88
2023-06-07T13:22:32.581Z,8.90
2023-06-07T13:24:59.821Z,7.65
2023-06-07T13:27:28.564Z,14.52
2023-06-07T13:29:56.575Z,9.43
2023-06-07T13:32:24.143Z,7.57
2023-06-07T13:34:51.207Z,7.35
2023-06-07T13:37:18.199Z,7.10
2023-06-07T13:39:45.117Z,8.77
2023-06-07T13:42:12.852Z,6.65
2023-06-07T13:44:40.818Z,7.95
2023-06-07T13:47:09.047Z,8.10
2023-06-07T13:49:36.917Z,10.55
2023-06-07T13:52:04.419Z,7.30
2023-06-07T13:54:33.133Z,7.47
2023-06-07T13:57:00.956Z,7.10
2023-06-07T13:59:29.728Z,8.48
2023-06-07T14:02:00.481Z,8.07
2023-06-07T14:04:28.504Z,6.57
2023-06-07T14:06:55.763Z,6.80
2023-06-07T14:09:22.725Z,6.75
2023-06-07T14:11:49.898Z,7.70
2023-06-07T14:14:16.995Z,8.27
2023-06-07T14:16:43.880Z,7.25
2023-06-07T14:19:10.999Z,8.85
2023-06-07T14:21:39.158Z,8.60
2023-06-07T14:24:06.496Z,6.68
2023-06-07T14:26:33.596Z,7.68
2023-06-07T14:29:00.647Z,9.13
2023-06-07T14:31:27.961Z,6.65
2023-06-07T14:33:55.000Z,8.75
2023-06-07T14:36:21.955Z,7.30
2023-06-07T14:38:48.788Z,7.63
2023-06-07T14:41:16.132Z,7.13
2023-06-07T14:43:43.058Z,6.35
2023-06-07T14:46:09.964Z,7.30
2023-06-07T14:48:36.884Z,7.20
2023-06-07T14:51:03.835Z,6.05
2023-06-07T14:53:30.665Z,6.90
2023-06-07T14:55:57.499Z,8.13
2023-06-07T14:58:24.438Z,6.63
2023-06-07T15:00:51.787Z,7.75
2023-06-07T15:03:18.772Z,6.47
2023-06-07T15:05:45.896Z,8.52
2023-06-07T15:08:12.797Z,6.43
2023-06-07T15:10:39.639Z,7.40
2023-06-07T15:13:06.495Z,10.32
2023-06-07T15:15:33.564Z,7.72
2023-06-07T15:18:00.430Z,9.00
2023-06-07T15:20:27.907Z,6.57
2023-06-07T15:22:54.774Z,8.00
2023-06-07T15:25:21.764Z,5.97
2023-06-07T15:27:48.652Z,6.65
2023-06-07T15:30:15.595Z,6.78
2023-06-07T15:32:42.472Z,6.20
2023-06-07T15:35:12.701Z,8.10
2023-06-07T15:37:40.328Z,7.45
2023-06-07T15:40:08.215Z,7.30
2023-06-07T15:42:35.705Z,8.40
2023-06-07T15:45:02.667Z,6.70
2023-06-07T15:47:29.517Z,6.25
2023-06-07T15:49:56.482Z,7.28
2023-06-07T15:52:23.308Z,6.60
2023-06-07T15:54:50.235Z,9.90
2023-06-07T15:57:17.313Z,7.47
2023-06-07T15:59:44.206Z,7.68
2023-06-07T16:02:11.089Z,8.25
2023-06-07T16:04:39.716Z,7.65
2023-06-07T16:07:06.654Z,7.60
2023-06-07T16:09:33.632Z,8.93
2023-06-07T16:12:00.535Z,8.23
2023-06-07T16:14:27.432Z,6.25
2023-06-07T16:16:54.423Z,7.00
2023-06-07T16:19:21.871Z,12.93
2023-06-07T16:21:48.764Z,7.70
2023-06-07T16:24:15.749Z,8.20
2023-06-07T16:26:42.712Z,8.32
2023-06-07T16:29:09.564Z,7.75
2023-06-07T16:31:36.451Z,7.88
2023-06-07T16:34:03.580Z,6.63
2023-06-07T16:36:30.898Z,9.27
2023-06-07T16:38:57.794Z,8.40
2023-06-07T16:41:26.684Z,7.45
2023-06-07T16:43:53.691Z,7.60
2023-06-07T16:46:21.115Z,8.05
2023-06-07T16:48:48.092Z,7.55
2023-06-07T16:51:15.362Z,7.18
2023-06-07T16:53:42.357Z,7.68
2023-06-07T16:56:09.260Z,7.50
2023-06-07T16:58:36.249Z,7.97
2023-06-07T17:01:04.596Z,8.02
2023-06-07T17:03:31.745Z,6.00
2023-06-07T17:05:58.665Z,6.70
2023-06-07T17:08:25.614Z,9.52
2023-06-07T17:10:52.568Z,6.00
2023-06-07T17:13:19.486Z,7.80
2023-06-07T17:15:46.562Z,8.18
2023-06-07T17:18:16.105Z,9.50
2023-06-07T17:20:44.481Z,7.60
2023-06-07T17:23:13.046Z,7.32
2023-06-07T17:25:39.900Z,7.47
2023-06-07T17:28:06.789Z,8.52
2023-06-07T17:30:38.940Z,6.75
2023-06-07T17:33:06.998Z,9.65
2023-06-07T17:35:34.015Z,7.57
2023-06-07T17:38:00.854Z,7.43
2023-06-07T17:40:27.748Z,8.95
2023-06-07T17:42:58.278Z,8.40
2023-06-07T17:45:26.997Z,7.43
2023-06-07T17:47:55.578Z,8.70
2023-06-07T17:50:37.166Z,6.60
2023-06-07T17:53:13.368Z,8.75
2023-06-07T17:55:41.233Z,7.03
2023-06-07T17:58:08.105Z,7.65
2023-06-07T18:00:35.134Z,8.68
2023-06-07T18:03:03.699Z,7.35
2023-06-07T18:05:30.801Z,7.18
2023-06-07T18:07:57.676Z,8.70
2023-06-07T18:10:24.585Z,8.32
2023-06-07T18:12:51.443Z,7.40
2023-06-07T18:15:18.318Z,8.25
2023-06-07T18:17:45.391Z,7.82
2023-06-07T18:20:12.733Z,11.25
2023-06-07T18:22:39.614Z,10.93
2023-06-07T18:25:06.870Z,8.63
2023-06-07T18:27:33.744Z,9.27
2023-06-07T18:30:00.613Z,8.93
2023-06-07T18:32:27.552Z,9.35
2023-06-07T18:34:54.431Z,7.90
2023-06-07T18:37:21.335Z,9.32
2023-06-07T18:39:48.195Z,8.25
2023-06-07T18:42:16.706Z,7.68
2023-06-07T18:44:43.838Z,6.95
2023-06-07T18:47:10.876Z,9.43
2023-06-07T18:49:37.882Z,8.38
2023-06-07T18:52:11.010Z,8.32
2023-06-07T18:54:38.500Z,9.45
2023-06-07T18:57:05.893Z,9.15
2023-06-07T18:59:33.607Z,7.75
2023-06-07T19:02:00.927Z,9.13
2023-06-07T19:04:29.405Z,9.43
2023-06-07T19:06:56.785Z,11.30
2023-06-07T19:09:23.852Z,10.77
2023-06-07T19:11:50.778Z,11.68
2023-06-07T19:14:19.650Z,11.20
2023-06-07T19:16:47.178Z,13.70
2023-06-07T19:19:14.570Z,10.77
2023-06-07T19:21:41.503Z,10.48
2023-06-07T19:24:08.926Z,10.80
2023-06-07T19:26:36.011Z,9.43
2023-06-07T19:29:04.115Z,9.70
2023-06-07T19:31:31.302Z,14.40
2023-06-07T19:33:58.304Z,10.20
2023-06-07T19:36:25.176Z,12.75
2023-06-07T19:38:54.011Z,11.10
2023-06-07T19:41:22.002Z,9.13
2023-06-07T19:43:48.753Z,10.40
2023-06-07T19:46:16.012Z,9.88
2023-06-07T19:48:43.044Z,11.18
2023-06-07T19:51:10.146Z,12.32
2023-06-07T19:53:37.184Z,9.27
2023-06-07T19:56:04.679Z,11.50
2023-06-07T19:58:31.960Z,10.82
2023-06-07T20:00:58.828Z,12.30
2023-06-07T20:03:25.787Z,11.43
2023-06-07T20:05:52.671Z,13.48
2023-06-07T20:08:19.599Z,9.63
2023-06-07T20:10:46.475Z,10.23
2023-06-07T20:13:17.883Z,11.38
2023-06-07T20:15:45.568Z,11.98
2023-06-07T20:18:12.421Z,11.20
2023-06-07T20:20:39.205Z,13.20
2023-06-07T20:23:06.786Z,9.55
2023-06-07T20:25:33.731Z,13.23
2023-06-07T20:28:00.645Z,9.82
2023-06-07T20:30:27.582Z,10.55
2023-06-07T20:32:54.604Z,14.35
2023-06-07T20:35:21.561Z,10.93
2023-06-07T20:37:49.032Z,11.07
2023-06-07T20:40:16.267Z,11.75
2023-06-07T20:42:43.081Z,12.45
2023-06-07T20:45:10.390Z,9.02
2023-06-07T20:47:37.153Z,11.05
2023-06-07T20:50:04.489Z,10.38
2023-06-07T20:52:33.236Z,12.50
2023-06-07T20:57:30.385Z,13.02
2023-06-07T20:59:57.328Z,12.10
2023-06-07T21:02:24.297Z,9.73
2023-06-07T21:04:54.157Z,12.30
2023-06-07T21:07:21.549Z,16.88
2023-06-07T21:09:48.628Z,15.43
2023-06-07T21:12:15.824Z,13.70
2023-06-07T21:14:42.805Z,13.00
2023-06-07T21:17:09.829Z,11.20
2023-06-07T21:19:37.073Z,12.90
2023-06-07T21:22:05.072Z,13.43
2023-06-07T21:24:32.188Z,15.50
2023-06-07T21:26:59.145Z,12.52
2023-06-07T21:29:25.977Z,12.23
2023-06-07T21:31:52.887Z,10.95
2023-06-07T21:34:19.766Z,12.10
2023-06-07T21:36:46.563Z,10.77
2023-06-07T21:39:13.338Z,12.55
2023-06-07T21:41:41.577Z,15.57
2023-06-07T21:44:08.733Z,10.85
2023-06-07T21:46:35.657Z,13.15
2023-06-07T21:49:02.574Z,9.75
2023-06-07T21:51:29.475Z,11.93
2023-06-07T21:53:56.273Z,10.75
2023-06-07T21:56:23.107Z,12.50
2023-06-07T21:58:50.042Z,12.80
2023-06-07T22:01:16.884Z,11.20
2023-06-07T22:03:43.745Z,12.95
2023-06-07T22:06:10.568Z,13.80
2023-06-07T22:08:37.394Z,16.08
2023-06-07T22:11:04.223Z,16.17
2023-06-07T22:13:31.100Z,12.50
2023-06-07T22:16:02.069Z,15.23
2023-06-07T22:18:32.579Z,12.48
2023-06-07T22:21:01.712Z,10.68
2023-06-07T22:23:28.722Z,11.80
2023-06-07T22:25:56.329Z,14.77
2023-06-07T22:28:24.087Z,13.38
2023-06-07T22:30:51.133Z,16.85
2023-06-07T22:33:18.857Z,13.90
2023-06-07T22:35:48.011Z,15.80
2023-06-07T22:38:14.971Z,12.68
2023-06-07T22:40:43.136Z,13.52
2023-06-07T22:43:09.977Z,12.48
2023-06-07T22:45:36.909Z,16.50
2023-06-07T22:48:06.170Z,13.13
2023-06-07T22:50:37.892Z,12.48
2023-06-07T22:53:06.077Z,13.93
2023-06-07T22:55:33.923Z,12.15
2023-06-07T22:58:01.936Z,10.88
2023-06-07T23:00:29.388Z,12.13
2023-06-07T23:02:58.577Z,11.68
2023-06-07T23:05:28.309Z,12.20
2023-06-07T23:07:56.795Z,9.85
2023-06-07T23:10:35.733Z,12.57
2023-06-07T23:13:10.510Z,11.82
2023-06-07T23:15:42.465Z,14.75
2023-06-07T23:18:11.702Z,10.63
2023-06-07T23:20:42.050Z,11.63
2023-06-07T23:23:11.260Z,15.38
2023-06-07T23:25:38.629Z,13.68
2023-06-07T23:28:06.696Z,13.80
2023-06-07T23:30:34.097Z,14.93
2023-06-07T23:33:01.197Z,12.63
2023-06-07T23:35:28.759Z,12.52
2023-06-07T23:37:55.810Z,13.40
2023-06-07T23:40:22.734Z,13.85
2023-06-07T23:42:53.381Z,12.57
2023-06-07T23:45:22.227Z,11.40
2023-06-07T23:47:49.517Z,11.68
2023-06-07T23:50:16.491Z,12.07
2023-06-07T23:52:43.334Z,12.60
2023-06-07T23:55:10.583Z,12.15
2023-06-07T23:57:37.519Z,12.75
